sensor_id;sensor_type;location;lat;lon;timestamp;P1;durP1;ratioP1;P2;durP2;ratioP2
18661;SDS011;61528;49.456;11.098;2022-10-31T00:01:32;11.97;;;7.60;;
18661;SDS011;61528;49.456;11.098;2022-10-31T00:03:59;12.03;;;8.03;;
18661;SDS011;61528;49.456;11.098;2022-10-31T00:06:25;9.57;;;7.23;;
18661;SDS011;61528;49.456;11.098;2022-10-31T00:08:52;9.23;;;7.60;;
18661;SDS011;61528;49.456;11.098;2022-10-31T00:11:19;12.40;;;7.70;;
18661;SDS011;61528;49.456;11.098;2022-10-31T00:13:45;13.73;;;8.13;;
18661;SDS011;61528;49.456;11.098;2022-10-31T00:16:22;14.57;;;8.07;;
18661;SDS011;61528;49.456;11.098;2022-10-31T00:18:49;12.33;;;8.07;;
18661;SDS011;61528;49.456;11.098;2022-10-31T00:21:15;12.10;;;8.00;;
18661;SDS011;61528;49.456;11.098;2022-10-31T00:23:41;13.43;;;7.83;;
18661;SDS011;61528;49.456;11.098;2022-10-31T00:26:07;13.07;;;8.13;;
18661;SDS011;61528;49.456;11.098;2022-10-31T00:28:34;13.93;;;8.57;;
18661;SDS011;61528;49.456;11.098;2022-10-31T00:31:03;10.00;;;7.50;;
18661;SDS011;61528;49.456;11.098;2022-10-31T00:33:29;12.93;;;7.87;;
18661;SDS011;61528;49.456;11.098;2022-10-31T00:35:56;12.50;;;7.80;;
18661;SDS011;61528;49.456;11.098;2022-10-31T00:38:22;13.53;;;7.67;;
18661;SDS011;61528;49.456;11.098;2022-10-31T00:40:48;11.73;;;7.43;;
18661;SDS011;61528;49.456;11.098;2022-10-31T00:43:14;10.23;;;8.00;;
18661;SDS011;61528;49.456;11.098;2022-10-31T00:45:41;15.00;;;8.07;;
18661;SDS011;61528;49.456;11.098;2022-10-31T00:48:08;9.90;;;7.50;;
18661;SDS011;61528;49.456;11.098;2022-10-31T00:50:34;12.53;;;7.70;;
18661;SDS011;61528;49.456;11.098;2022-10-31T00:53:00;11.40;;;7.53;;
18661;SDS011;61528;49.456;11.098;2022-10-31T00:55:26;16.37;;;8.77;;
18661;SDS011;61528;49.456;11.098;2022-10-31T00:57:52;12.13;;;8.43;;
18661;SDS011;61528;49.456;11.098;2022-10-31T01:00:19;9.27;;;7.10;;
18661;SDS011;61528;49.456;11.098;2022-10-31T01:02:45;13.83;;;8.03;;
18661;SDS011;61528;49.456;11.098;2022-10-31T01:05:11;11.87;;;7.30;;
18661;SDS011;61528;49.456;11.098;2022-10-31T01:07:40;11.80;;;7.37;;
18661;SDS011;61528;49.456;11.098;2022-10-31T01:10:07;11.90;;;6.80;;
18661;SDS011;61528;49.456;11.098;2022-10-31T01:12:40;11.90;;;7.23;;
18661;SDS011;61528;49.456;11.098;2022-10-31T01:15:07;11.27;;;7.30;;
18661;SDS011;61528;49.456;11.098;2022-10-31T01:17:34;9.83;;;6.93;;
18661;SDS011;61528;49.456;11.098;2022-10-31T01:20:00;11.83;;;7.23;;
18661;SDS011;61528;49.456;11.098;2022-10-31T01:22:26;12.00;;;7.27;;
18661;SDS011;61528;49.456;11.098;2022-10-31T01:24:53;9.90;;;6.77;;
18661;SDS011;61528;49.456;11.098;2022-10-31T01:27:19;9.20;;;7.40;;
18661;SDS011;61528;49.456;11.098;2022-10-31T01:29:45;13.30;;;7.10;;
18661;SDS011;61528;49.456;11.098;2022-10-31T01:32:12;15.67;;;7.43;;
18661;SDS011;61528;49.456;11.098;2022-10-31T01:34:38;15.33;;;6.80;;
18661;SDS011;61528;49.456;11.098;2022-10-31T01:37:04;9.50;;;6.47;;
18661;SDS011;61528;49.456;11.098;2022-10-31T01:39:30;10.73;;;7.20;;
18661;SDS011;61528;49.456;11.098;2022-10-31T01:41:56;11.07;;;7.10;;
18661;SDS011;61528;49.456;11.098;2022-10-31T01:51:58;11.13;;;6.93;;
18661;SDS011;61528;49.456;11.098;2022-10-31T01:54:29;12.07;;;7.00;;
18661;SDS011;61528;49.456;11.098;2022-10-31T01:56:56;11.33;;;7.73;;
18661;SDS011;61528;49.456;11.098;2022-10-31T01:59:24;10.90;;;7.03;;
18661;SDS011;61528;49.456;11.098;2022-10-31T02:01:52;10.83;;;7.00;;
18661;SDS011;61528;49.456;11.098;2022-10-31T02:04:18;10.73;;;7.17;;
18661;SDS011;61528;49.456;11.098;2022-10-31T02:06:49;13.00;;;7.10;;
18661;SDS011;61528;49.456;11.098;2022-10-31T02:09:17;11.53;;;7.27;;
18661;SDS011;61528;49.456;11.098;2022-10-31T02:11:49;10.57;;;6.77;;
18661;SDS011;61528;49.456;11.098;2022-10-31T02:14:17;9.80;;;6.87;;
18661;SDS011;61528;49.456;11.098;2022-10-31T02:16:43;14.27;;;7.23;;
18661;SDS011;61528;49.456;11.098;2022-10-31T02:19:10;11.30;;;7.07;;
18661;SDS011;61528;49.456;11.098;2022-10-31T02:21:44;10.87;;;7.20;;
18661;SDS011;61528;49.456;11.098;2022-10-31T02:24:21;10.60;;;7.73;;
18661;SDS011;61528;49.456;11.098;2022-10-31T02:32:42;10.03;;;7.20;;
18661;SDS011;61528;49.456;11.098;2022-10-31T02:35:15;12.03;;;6.60;;
18661;SDS011;61528;49.456;11.098;2022-10-31T02:40:15;9.13;;;7.13;;
18661;SDS011;61528;49.456;11.098;2022-10-31T02:42:49;10.60;;;7.13;;
18661;SDS011;61528;49.456;11.098;2022-10-31T02:45:25;11.27;;;7.00;;
18661;SDS011;61528;49.456;11.098;2022-10-31T02:47:54;10.27;;;6.60;;
18661;SDS011;61528;49.456;11.098;2022-10-31T02:50:28;9.80;;;6.63;;
18661;SDS011;61528;49.456;11.098;2022-10-31T02:52:55;8.67;;;6.57;;
18661;SDS011;61528;49.456;11.098;2022-10-31T02:57:51;12.10;;;7.63;;
18661;SDS011;61528;49.456;11.098;2022-10-31T03:00:19;11.30;;;6.20;;
18661;SDS011;61528;49.456;11.098;2022-10-31T03:03:03;10.83;;;7.00;;
18661;SDS011;61528;49.456;11.098;2022-10-31T03:05:44;8.93;;;6.77;;
18661;SDS011;61528;49.456;11.098;2022-10-31T03:08:21;12.83;;;6.90;;
18661;SDS011;61528;49.456;11.098;2022-10-31T03:13:20;10.00;;;6.63;;
18661;SDS011;61528;49.456;11.098;2022-10-31T03:15:49;12.70;;;7.10;;
18661;SDS011;61528;49.456;11.098;2022-10-31T03:18:18;9.87;;;6.80;;
18661;SDS011;61528;49.456;11.098;2022-10-31T03:20:55;11.30;;;6.77;;
18661;SDS011;61528;49.456;11.098;2022-10-31T03:23:22;11.30;;;6.50;;
18661;SDS011;61528;49.456;11.098;2022-10-31T03:25:50;10.23;;;6.50;;
18661;SDS011;61528;49.456;11.098;2022-10-31T03:28:18;13.97;;;6.27;;
18661;SDS011;61528;49.456;11.098;2022-10-31T03:30:44;10.50;;;7.17;;
18661;SDS011;61528;49.456;11.098;2022-10-31T03:33:13;10.63;;;6.43;;
18661;SDS011;61528;49.456;11.098;2022-10-31T03:35:41;9.80;;;6.60;;
18661;SDS011;61528;49.456;11.098;2022-10-31T03:38:07;8.27;;;5.97;;
18661;SDS011;61528;49.456;11.098;2022-10-31T03:40:35;12.00;;;6.70;;
18661;SDS011;61528;49.456;11.098;2022-10-31T03:43:07;9.80;;;6.50;;
18661;SDS011;61528;49.456;11.098;2022-10-31T03:45:35;9.13;;;5.93;;
18661;SDS011;61528;49.456;11.098;2022-10-31T03:48:04;11.37;;;6.03;;
18661;SDS011;61528;49.456;11.098;2022-10-31T03:50:34;10.77;;;5.87;;
18661;SDS011;61528;49.456;11.098;2022-10-31T03:53:45;8.23;;;5.87;;
18661;SDS011;61528;49.456;11.098;2022-10-31T03:55:59;9.07;;;6.10;;
18661;SDS011;61528;49.456;11.098;2022-10-31T03:59:00;11.97;;;6.63;;
18661;SDS011;61528;49.456;11.098;2022-10-31T04:01:19;9.87;;;6.67;;
18661;SDS011;61528;49.456;11.098;2022-10-31T04:03:46;11.17;;;6.57;;
18661;SDS011;61528;49.456;11.098;2022-10-31T04:06:12;11.17;;;6.50;;
18661;SDS011;61528;49.456;11.098;2022-10-31T04:08:42;6.17;;;5.40;;
18661;SDS011;61528;49.456;11.098;2022-10-31T04:11:10;11.67;;;6.57;;
18661;SDS011;61528;49.456;11.098;2022-10-31T04:13:37;10.60;;;6.40;;
18661;SDS011;61528;49.456;11.098;2022-10-31T04:16:05;11.70;;;6.23;;
18661;SDS011;61528;49.456;11.098;2022-10-31T04:18:32;9.30;;;5.93;;
18661;SDS011;61528;49.456;11.098;2022-10-31T04:21:02;10.17;;;6.73;;
18661;SDS011;61528;49.456;11.098;2022-10-31T04:23:28;9.37;;;6.10;;
18661;SDS011;61528;49.456;11.098;2022-10-31T04:25:55;10.23;;;6.43;;
18661;SDS011;61528;49.456;11.098;2022-10-31T04:28:21;9.10;;;5.60;;
18661;SDS011;61528;49.456;11.098;2022-10-31T04:30:48;6.97;;;5.60;;
18661;SDS011;61528;49.456;11.098;2022-10-31T04:33:14;9.50;;;5.97;;
18661;SDS011;61528;49.456;11.098;2022-10-31T04:35:40;11.27;;;5.87;;
18661;SDS011;61528;49.456;11.098;2022-10-31T04:38:06;7.53;;;5.37;;
18661;SDS011;61528;49.456;11.098;2022-10-31T04:40:33;9.23;;;6.17;;
18661;SDS011;61528;49.456;11.098;2022-10-31T04:42:59;12.20;;;6.67;;
18661;SDS011;61528;49.456;11.098;2022-10-31T04:45:26;10.60;;;5.93;;
18661;SDS011;61528;49.456;11.098;2022-10-31T04:47:52;9.27;;;6.23;;
18661;SDS011;61528;49.456;11.098;2022-10-31T04:50:18;13.43;;;6.60;;
18661;SDS011;61528;49.456;11.098;2022-10-31T04:52:45;10.57;;;6.23;;
18661;SDS011;61528;49.456;11.098;2022-10-31T04:55:12;8.30;;;5.97;;
18661;SDS011;61528;49.456;11.098;2022-10-31T04:57:42;9.83;;;5.80;;
18661;SDS011;61528;49.456;11.098;2022-10-31T05:00:09;8.90;;;6.20;;
18661;SDS011;61528;49.456;11.098;2022-10-31T05:02:50;7.73;;;5.83;;
18661;SDS011;61528;49.456;11.098;2022-10-31T05:05:18;9.03;;;5.97;;
18661;SDS011;61528;49.456;11.098;2022-10-31T05:07:45;12.03;;;6.03;;
18661;SDS011;61528;49.456;11.098;2022-10-31T05:10:12;8.30;;;5.97;;
18661;SDS011;61528;49.456;11.098;2022-10-31T05:12:45;10.37;;;6.07;;
18661;SDS011;61528;49.456;11.098;2022-10-31T05:15:11;11.00;;;6.33;;
18661;SDS011;61528;49.456;11.098;2022-10-31T05:17:38;11.30;;;5.77;;
18661;SDS011;61528;49.456;11.098;2022-10-31T05:20:04;10.63;;;5.93;;
18661;SDS011;61528;49.456;11.098;2022-10-31T05:22:30;13.17;;;6.80;;
18661;SDS011;61528;49.456;11.098;2022-10-31T05:24:56;8.00;;;5.13;;
18661;SDS011;61528;49.456;11.098;2022-10-31T05:27:23;11.60;;;5.77;;
18661;SDS011;61528;49.456;11.098;2022-10-31T05:29:49;10.00;;;5.80;;
18661;SDS011;61528;49.456;11.098;2022-10-31T05:32:15;7.87;;;5.77;;
18661;SDS011;61528;49.456;11.098;2022-10-31T05:34:41;8.40;;;5.50;;
18661;SDS011;61528;49.456;11.098;2022-10-31T05:37:07;10.60;;;6.10;;
18661;SDS011;61528;49.456;11.098;2022-10-31T05:39:34;8.47;;;5.80;;
18661;SDS011;61528;49.456;11.098;2022-10-31T05:42:00;10.17;;;5.60;;
18661;SDS011;61528;49.456;11.098;2022-10-31T05:44:26;9.47;;;6.33;;
18661;SDS011;61528;49.456;11.098;2022-10-31T05:46:52;10.53;;;6.40;;
18661;SDS011;61528;49.456;11.098;2022-10-31T05:49:18;10.23;;;5.77;;
18661;SDS011;61528;49.456;11.098;2022-10-31T05:51:44;8.90;;;6.20;;
18661;SDS011;61528;49.456;11.098;2022-10-31T05:54:10;11.73;;;6.40;;
18661;SDS011;61528;49.456;11.098;2022-10-31T05:56:36;10.10;;;6.90;;
18661;SDS011;61528;49.456;11.098;2022-10-31T05:59:02;8.23;;;5.70;;
18661;SDS011;61528;49.456;11.098;2022-10-31T06:01:28;10.77;;;5.73;;
18661;SDS011;61528;49.456;11.098;2022-10-31T06:03:55;9.87;;;6.50;;
18661;SDS011;61528;49.456;11.098;2022-10-31T06:06:21;12.40;;;6.13;;
18661;SDS011;61528;49.456;11.098;2022-10-31T06:08:47;8.73;;;6.20;;
18661;SDS011;61528;49.456;11.098;2022-10-31T06:11:13;14.00;;;6.97;;
18661;SDS011;61528;49.456;11.098;2022-10-31T06:13:39;14.17;;;6.60;;
18661;SDS011;61528;49.456;11.098;2022-10-31T06:16:05;13.50;;;6.80;;
18661;SDS011;61528;49.456;11.098;2022-10-31T06:18:31;11.00;;;7.07;;
18661;SDS011;61528;49.456;11.098;2022-10-31T06:20:57;10.83;;;6.80;;
18661;SDS011;61528;49.456;11.098;2022-10-31T06:23:23;12.50;;;7.10;;
18661;SDS011;61528;49.456;11.098;2022-10-31T06:25:50;13.87;;;7.07;;
18661;SDS011;61528;49.456;11.098;2022-10-31T06:28:16;9.17;;;6.33;;
18661;SDS011;61528;49.456;11.098;2022-10-31T06:30:42;11.17;;;6.70;;
18661;SDS011;61528;49.456;11.098;2022-10-31T06:33:08;8.53;;;5.90;;
18661;SDS011;61528;49.456;11.098;2022-10-31T06:35:35;11.77;;;7.07;;
18661;SDS011;61528;49.456;11.098;2022-10-31T06:38:01;14.83;;;7.47;;
18661;SDS011;61528;49.456;11.098;2022-10-31T06:40:27;12.97;;;7.40;;
18661;SDS011;61528;49.456;11.098;2022-10-31T06:42:57;11.43;;;7.30;;
18661;SDS011;61528;49.456;11.098;2022-10-31T06:45:23;15.03;;;7.63;;
18661;SDS011;61528;49.456;11.098;2022-10-31T06:47:52;13.77;;;7.60;;
18661;SDS011;61528;49.456;11.098;2022-10-31T06:50:22;12.03;;;6.87;;
18661;SDS011;61528;49.456;11.098;2022-10-31T06:52:52;10.60;;;7.03;;
18661;SDS011;61528;49.456;11.098;2022-10-31T06:55:18;12.20;;;7.67;;
18661;SDS011;61528;49.456;11.098;2022-10-31T06:57:49;13.70;;;7.70;;
18661;SDS011;61528;49.456;11.098;2022-10-31T07:00:16;14.87;;;7.43;;
18661;SDS011;61528;49.456;11.098;2022-10-31T07:02:42;13.67;;;7.23;;
18661;SDS011;61528;49.456;11.098;2022-10-31T07:05:08;12.50;;;7.87;;
18661;SDS011;61528;49.456;11.098;2022-10-31T07:07:35;14.53;;;7.53;;
18661;SDS011;61528;49.456;11.098;2022-10-31T07:10:01;13.03;;;7.50;;
18661;SDS011;61528;49.456;11.098;2022-10-31T07:12:27;8.93;;;6.27;;
18661;SDS011;61528;49.456;11.098;2022-10-31T07:14:53;11.33;;;6.70;;
18661;SDS011;61528;49.456;11.098;2022-10-31T07:17:22;9.93;;;6.90;;
18661;SDS011;61528;49.456;11.098;2022-10-31T07:19:49;11.40;;;7.27;;
18661;SDS011;61528;49.456;11.098;2022-10-31T07:22:15;13.20;;;7.80;;
18661;SDS011;61528;49.456;11.098;2022-10-31T07:24:41;14.50;;;8.17;;
18661;SDS011;61528;49.456;11.098;2022-10-31T07:27:08;10.23;;;7.53;;
18661;SDS011;61528;49.456;11.098;2022-10-31T07:29:34;11.57;;;7.67;;
18661;SDS011;61528;49.456;11.098;2022-10-31T07:32:00;8.90;;;7.23;;
18661;SDS011;61528;49.456;11.098;2022-10-31T07:34:26;11.30;;;7.50;;
18661;SDS011;61528;49.456;11.098;2022-10-31T07:36:53;12.57;;;6.80;;
18661;SDS011;61528;49.456;11.098;2022-10-31T07:39:19;11.90;;;7.20;;
18661;SDS011;61528;49.456;11.098;2022-10-31T07:41:46;10.63;;;7.40;;
18661;SDS011;61528;49.456;11.098;2022-10-31T07:44:12;16.20;;;7.73;;
18661;SDS011;61528;49.456;11.098;2022-10-31T07:46:38;12.20;;;8.07;;
18661;SDS011;61528;49.456;11.098;2022-10-31T07:49:05;11.63;;;8.30;;
18661;SDS011;61528;49.456;11.098;2022-10-31T07:51:31;10.97;;;7.80;;
18661;SDS011;61528;49.456;11.098;2022-10-31T07:53:58;12.33;;;8.57;;
18661;SDS011;61528;49.456;11.098;2022-10-31T07:56:24;15.20;;;8.20;;
18661;SDS011;61528;49.456;11.098;2022-10-31T07:58:50;12.60;;;7.93;;
18661;SDS011;61528;49.456;11.098;2022-10-31T08:01:16;13.97;;;7.40;;
18661;SDS011;61528;49.456;11.098;2022-10-31T08:03:42;13.47;;;7.97;;
18661;SDS011;61528;49.456;11.098;2022-10-31T08:06:09;16.20;;;8.30;;
18661;SDS011;61528;49.456;11.098;2022-10-31T08:08:35;13.87;;;8.07;;
18661;SDS011;61528;49.456;11.098;2022-10-31T08:11:02;10.87;;;7.20;;
18661;SDS011;61528;49.456;11.098;2022-10-31T08:13:28;13.87;;;7.77;;
18661;SDS011;61528;49.456;11.098;2022-10-31T08:15:55;13.47;;;8.07;;
18661;SDS011;61528;49.456;11.098;2022-10-31T08:18:28;11.80;;;7.30;;
18661;SDS011;61528;49.456;11.098;2022-10-31T08:20:55;15.73;;;8.03;;
18661;SDS011;61528;49.456;11.098;2022-10-31T08:23:21;11.87;;;7.70;;
18661;SDS011;61528;49.456;11.098;2022-10-31T08:25:48;14.93;;;8.30;;
18661;SDS011;61528;49.456;11.098;2022-10-31T08:28:14;12.93;;;8.07;;
18661;SDS011;61528;49.456;11.098;2022-10-31T08:30:41;11.27;;;7.73;;
18661;SDS011;61528;49.456;11.098;2022-10-31T08:33:12;18.10;;;8.20;;
18661;SDS011;61528;49.456;11.098;2022-10-31T08:35:38;13.43;;;7.97;;
18661;SDS011;61528;49.456;11.098;2022-10-31T08:38:05;11.60;;;7.70;;
18661;SDS011;61528;49.456;11.098;2022-10-31T08:40:33;12.93;;;7.70;;
18661;SDS011;61528;49.456;11.098;2022-10-31T08:45:27;12.47;;;8.17;;
18661;SDS011;61528;49.456;11.098;2022-10-31T08:47:56;11.33;;;8.27;;
18661;SDS011;61528;49.456;11.098;2022-10-31T08:50:22;12.90;;;8.03;;
18661;SDS011;61528;49.456;11.098;2022-10-31T08:52:49;13.47;;;8.17;;
18661;SDS011;61528;49.456;11.098;2022-10-31T08:55:15;13.00;;;9.17;;
18661;SDS011;61528;49.456;11.098;2022-10-31T08:57:41;10.37;;;8.53;;
18661;SDS011;61528;49.456;11.098;2022-10-31T09:00:07;14.00;;;10.33;;
18661;SDS011;61528;49.456;11.098;2022-10-31T09:02:34;14.80;;;10.57;;
18661;SDS011;61528;49.456;11.098;2022-10-31T09:05:00;15.93;;;10.17;;
18661;SDS011;61528;49.456;11.098;2022-10-31T09:07:26;14.90;;;10.17;;
18661;SDS011;61528;49.456;11.098;2022-10-31T09:09:52;11.37;;;9.90;;
18661;SDS011;61528;49.456;11.098;2022-10-31T09:12:18;16.03;;;10.13;;
18661;SDS011;61528;49.456;11.098;2022-10-31T09:14:44;15.67;;;10.17;;
18661;SDS011;61528;49.456;11.098;2022-10-31T09:17:10;12.63;;;10.37;;
18661;SDS011;61528;49.456;11.098;2022-10-31T09:19:36;13.70;;;9.50;;
18661;SDS011;61528;49.456;11.098;2022-10-31T09:22:02;13.47;;;9.63;;
18661;SDS011;61528;49.456;11.098;2022-10-31T09:24:29;12.97;;;9.73;;
18661;SDS011;61528;49.456;11.098;2022-10-31T09:26:55;15.53;;;9.57;;
18661;SDS011;61528;49.456;11.098;2022-10-31T09:29:21;13.80;;;9.87;;
18661;SDS011;61528;49.456;11.098;2022-10-31T09:31:47;14.10;;;9.60;;
18661;SDS011;61528;49.456;11.098;2022-10-31T09:34:13;13.40;;;9.60;;
18661;SDS011;61528;49.456;11.098;2022-10-31T09:36:40;14.97;;;9.67;;
18661;SDS011;61528;49.456;11.098;2022-10-31T09:39:08;12.27;;;9.17;;
18661;SDS011;61528;49.456;11.098;2022-10-31T09:41:43;14.33;;;9.53;;
18661;SDS011;61528;49.456;11.098;2022-10-31T09:44:23;13.73;;;9.23;;
18661;SDS011;61528;49.456;11.098;2022-10-31T09:52:02;12.87;;;9.10;;
18661;SDS011;61528;49.456;11.098;2022-10-31T09:56:58;12.60;;;9.07;;
18661;SDS011;61528;49.456;11.098;2022-10-31T09:59:34;11.70;;;9.37;;
18661;SDS011;61528;49.456;11.098;2022-10-31T10:02:06;12.10;;;7.90;;
18661;SDS011;61528;49.456;11.098;2022-10-31T10:04:40;14.53;;;8.80;;
18661;SDS011;61528;49.456;11.098;2022-10-31T10:07:24;12.43;;;8.17;;
18661;SDS011;61528;49.456;11.098;2022-10-31T10:09:53;11.37;;;8.43;;
18661;SDS011;61528;49.456;11.098;2022-10-31T10:12:36;10.73;;;8.57;;
18661;SDS011;61528;49.456;11.098;2022-10-31T10:15:14;13.50;;;7.93;;
18661;SDS011;61528;49.456;11.098;2022-10-31T10:17:53;14.37;;;8.13;;
18661;SDS011;61528;49.456;11.098;2022-10-31T10:25:40;12.57;;;7.33;;
18661;SDS011;61528;49.456;11.098;2022-10-31T10:30:53;14.00;;;7.63;;
18661;SDS011;61528;49.456;11.098;2022-10-31T10:33:26;11.17;;;7.70;;
18661;SDS011;61528;49.456;11.098;2022-10-31T10:35:55;9.37;;;7.33;;
18661;SDS011;61528;49.456;11.098;2022-10-31T10:40:54;13.60;;;7.47;;
18661;SDS011;61528;49.456;11.098;2022-10-31T10:48:56;12.50;;;7.87;;
18661;SDS011;61528;49.456;11.098;2022-10-31T10:51:43;11.03;;;7.70;;
18661;SDS011;61528;49.456;11.098;2022-10-31T10:56:50;11.73;;;8.20;;
18661;SDS011;61528;49.456;11.098;2022-10-31T10:59:18;13.83;;;8.37;;
18661;SDS011;61528;49.456;11.098;2022-10-31T11:01:45;11.93;;;7.97;;
18661;SDS011;61528;49.456;11.098;2022-10-31T11:04:28;13.40;;;7.63;;
18661;SDS011;61528;49.456;11.098;2022-10-31T11:07:02;12.77;;;7.60;;
18661;SDS011;61528;49.456;11.098;2022-10-31T11:09:28;11.43;;;7.17;;
18661;SDS011;61528;49.456;11.098;2022-10-31T11:11:55;13.40;;;7.80;;
18661;SDS011;61528;49.456;11.098;2022-10-31T11:14:21;13.83;;;7.77;;
18661;SDS011;61528;49.456;11.098;2022-10-31T11:16:50;12.87;;;8.23;;
18661;SDS011;61528;49.456;11.098;2022-10-31T11:21:42;13.93;;;7.87;;
18661;SDS011;61528;49.456;11.098;2022-10-31T11:26:39;12.37;;;8.17;;
18661;SDS011;61528;49.456;11.098;2022-10-31T11:29:16;10.50;;;7.70;;
18661;SDS011;61528;49.456;11.098;2022-10-31T11:31:46;12.37;;;7.40;;
18661;SDS011;61528;49.456;11.098;2022-10-31T11:34:56;12.57;;;6.83;;
18661;SDS011;61528;49.456;11.098;2022-10-31T11:37:04;10.30;;;7.37;;
18661;SDS011;61528;49.456;11.098;2022-10-31T11:39:38;10.27;;;7.30;;
18661;SDS011;61528;49.456;11.098;2022-10-31T11:42:05;11.63;;;7.67;;
18661;SDS011;61528;49.456;11.098;2022-10-31T11:44:31;13.23;;;6.57;;
18661;SDS011;61528;49.456;11.098;2022-10-31T11:46:58;9.23;;;6.77;;
18661;SDS011;61528;49.456;11.098;2022-10-31T11:49:36;10.67;;;7.13;;
18661;SDS011;61528;49.456;11.098;2022-10-31T11:52:14;12.77;;;7.53;;
18661;SDS011;61528;49.456;11.098;2022-10-31T11:54:44;11.07;;;7.13;;
18661;SDS011;61528;49.456;11.098;2022-10-31T11:57:46;14.00;;;6.80;;
18661;SDS011;61528;49.456;11.098;2022-10-31T12:00:17;11.60;;;7.03;;
18661;SDS011;61528;49.456;11.098;2022-10-31T12:02:46;16.30;;;6.53;;
18661;SDS011;61528;49.456;11.098;2022-10-31T12:05:19;9.53;;;6.20;;
18661;SDS011;61528;49.456;11.098;2022-10-31T12:07:47;9.87;;;6.20;;
18661;SDS011;61528;49.456;11.098;2022-10-31T12:10:14;9.97;;;6.57;;
18661;SDS011;61528;49.456;11.098;2022-10-31T12:12:50;9.53;;;6.17;;
18661;SDS011;61528;49.456;11.098;2022-10-31T12:15:29;10.60;;;6.67;;
18661;SDS011;61528;49.456;11.098;2022-10-31T12:18:15;9.87;;;6.40;;
18661;SDS011;61528;49.456;11.098;2022-10-31T12:20:50;11.47;;;7.40;;
18661;SDS011;61528;49.456;11.098;2022-10-31T12:23:34;13.27;;;7.07;;
18661;SDS011;61528;49.456;11.098;2022-10-31T12:28:35;9.13;;;6.70;;
18661;SDS011;61528;49.456;11.098;2022-10-31T12:39:19;10.83;;;6.70;;
18661;SDS011;61528;49.456;11.098;2022-10-31T13:02:09;9.57;;;6.77;;
18661;SDS011;61528;49.456;11.098;2022-10-31T13:04:51;7.40;;;6.30;;
18661;SDS011;61528;49.456;11.098;2022-10-31T13:07:19;9.00;;;6.90;;
18661;SDS011;61528;49.456;11.098;2022-10-31T13:09:49;10.63;;;6.77;;
18661;SDS011;61528;49.456;11.098;2022-10-31T13:12:19;8.90;;;6.77;;
18661;SDS011;61528;49.456;11.098;2022-10-31T13:14:51;11.40;;;6.90;;
18661;SDS011;61528;49.456;11.098;2022-10-31T13:17:24;13.37;;;7.53;;
18661;SDS011;61528;49.456;11.098;2022-10-31T13:19:53;9.60;;;7.50;;
18661;SDS011;61528;49.456;11.098;2022-10-31T13:22:21;10.83;;;7.57;;
18661;SDS011;61528;49.456;11.098;2022-10-31T13:27:39;9.17;;;7.17;;
18661;SDS011;61528;49.456;11.098;2022-10-31T13:32:40;12.37;;;8.30;;
18661;SDS011;61528;49.456;11.098;2022-10-31T13:35:10;11.57;;;7.63;;
18661;SDS011;61528;49.456;11.098;2022-10-31T13:37:41;7.80;;;6.97;;
18661;SDS011;61528;49.456;11.098;2022-10-31T13:40:12;12.40;;;7.77;;
18661;SDS011;61528;49.456;11.098;2022-10-31T13:45:18;13.60;;;8.07;;
18661;SDS011;61528;49.456;11.098;2022-10-31T13:52:52;11.57;;;8.60;;
18661;SDS011;61528;49.456;11.098;2022-10-31T13:55:45;10.33;;;7.33;;
18661;SDS011;61528;49.456;11.098;2022-10-31T14:00:57;12.17;;;8.00;;
18661;SDS011;61528;49.456;11.098;2022-10-31T14:03:24;11.30;;;8.13;;
18661;SDS011;61528;49.456;11.098;2022-10-31T14:05:54;10.53;;;8.60;;
18661;SDS011;61528;49.456;11.098;2022-10-31T14:08:23;10.37;;;7.80;;
18661;SDS011;61528;49.456;11.098;2022-10-31T14:10:50;10.87;;;8.10;;
18661;SDS011;61528;49.456;11.098;2022-10-31T14:16:02;13.27;;;9.00;;
18661;SDS011;61528;49.456;11.098;2022-10-31T14:18:31;10.47;;;8.13;;
18661;SDS011;61528;49.456;11.098;2022-10-31T14:20:58;8.73;;;7.80;;
18661;SDS011;61528;49.456;11.098;2022-10-31T14:26:06;11.70;;;8.37;;
18661;SDS011;61528;49.456;11.098;2022-10-31T14:28:34;10.73;;;8.43;;
18661;SDS011;61528;49.456;11.098;2022-10-31T14:31:00;12.37;;;9.80;;
18661;SDS011;61528;49.456;11.098;2022-10-31T14:33:27;15.77;;;8.93;;
18661;SDS011;61528;49.456;11.098;2022-10-31T14:36:04;11.93;;;8.40;;
18661;SDS011;61528;49.456;11.098;2022-10-31T14:38:41;13.90;;;8.53;;
18661;SDS011;61528;49.456;11.098;2022-10-31T14:43:39;15.03;;;9.97;;
18661;SDS011;61528;49.456;11.098;2022-10-31T14:49:10;11.63;;;8.60;;
18661;SDS011;61528;49.456;11.098;2022-10-31T14:51:40;10.50;;;8.10;;
18661;SDS011;61528;49.456;11.098;2022-10-31T14:54:11;17.43;;;8.60;;
18661;SDS011;61528;49.456;11.098;2022-10-31T14:56:40;14.87;;;8.57;;
18661;SDS011;61528;49.456;11.098;2022-10-31T14:59:12;12.03;;;8.27;;
18661;SDS011;61528;49.456;11.098;2022-10-31T15:01:39;10.23;;;8.33;;
18661;SDS011;61528;49.456;11.098;2022-10-31T15:04:13;14.23;;;8.60;;
18661;SDS011;61528;49.456;11.098;2022-10-31T15:06:42;14.47;;;9.07;;
18661;SDS011;61528;49.456;11.098;2022-10-31T15:09:25;10.00;;;8.33;;
18661;SDS011;61528;49.456;11.098;2022-10-31T15:11:51;13.30;;;8.27;;
18661;SDS011;61528;49.456;11.098;2022-10-31T15:14:25;12.30;;;8.77;;
18661;SDS011;61528;49.456;11.098;2022-10-31T15:16:51;13.17;;;9.00;;
18661;SDS011;61528;49.456;11.098;2022-10-31T15:19:25;16.23;;;9.00;;
18661;SDS011;61528;49.456;11.098;2022-10-31T15:21:52;9.67;;;8.27;;
18661;SDS011;61528;49.456;11.098;2022-10-31T15:24:19;10.70;;;8.30;;
18661;SDS011;61528;49.456;11.098;2022-10-31T15:26:47;17.57;;;8.67;;
18661;SDS011;61528;49.456;11.098;2022-10-31T15:29:15;10.70;;;8.40;;
18661;SDS011;61528;49.456;11.098;2022-10-31T15:31:55;14.70;;;9.13;;
18661;SDS011;61528;49.456;11.098;2022-10-31T15:34:24;12.27;;;9.20;;
18661;SDS011;61528;49.456;11.098;2022-10-31T15:36:52;14.03;;;9.73;;
18661;SDS011;61528;49.456;11.098;2022-10-31T15:39:18;13.67;;;8.57;;
18661;SDS011;61528;49.456;11.098;2022-10-31T15:41:52;10.57;;;8.43;;
18661;SDS011;61528;49.456;11.098;2022-10-31T15:44:23;14.87;;;9.30;;
18661;SDS011;61528;49.456;11.098;2022-10-31T15:47:00;11.93;;;9.40;;
18661;SDS011;61528;49.456;11.098;2022-10-31T15:55:21;12.60;;;9.33;;
18661;SDS011;61528;49.456;11.098;2022-10-31T15:57:49;13.23;;;8.37;;
18661;SDS011;61528;49.456;11.098;2022-10-31T16:00:25;11.87;;;8.97;;
18661;SDS011;61528;49.456;11.098;2022-10-31T16:03:05;11.53;;;8.93;;
18661;SDS011;61528;49.456;11.098;2022-10-31T16:05:39;13.17;;;9.50;;
18661;SDS011;61528;49.456;11.098;2022-10-31T16:08:22;11.83;;;8.77;;
18661;SDS011;61528;49.456;11.098;2022-10-31T16:10:49;12.80;;;8.60;;
18661;SDS011;61528;49.456;11.098;2022-10-31T16:13:15;12.30;;;8.63;;
18661;SDS011;61528;49.456;11.098;2022-10-31T16:15:51;15.17;;;8.93;;
18661;SDS011;61528;49.456;11.098;2022-10-31T16:18:18;13.17;;;8.27;;
18661;SDS011;61528;49.456;11.098;2022-10-31T16:20:51;11.83;;;8.50;;
18661;SDS011;61528;49.456;11.098;2022-10-31T16:23:19;12.23;;;8.03;;
18661;SDS011;61528;49.456;11.098;2022-10-31T16:25:46;15.60;;;7.73;;
18661;SDS011;61528;49.456;11.098;2022-10-31T16:28:17;12.27;;;7.57;;
18661;SDS011;61528;49.456;11.098;2022-10-31T16:30:44;9.70;;;7.50;;
18661;SDS011;61528;49.456;11.098;2022-10-31T16:33:21;10.30;;;7.83;;